South Fort Myers, Florida
Current Conditions -  °F | °C
As of 11:53 AM on Thursday 23 Oct 2014 (Local Time) from KFMY Reporting Station
Few Clouds Few Clouds  
Wind Chill: 80°   Ceiling: Unl
Heat Index: 82°   Visibility: 10mi
Dew Point: 66°   Wind: 18mph
Humidity: 62%   Direction: 60°ENE
Pressure: 29.94"   Gusts: 23mph
Location:  26.6372°N, 81.8725°W
Report Text: KFMY 231553Z 06016G20KT 10SM FEW041 27/19 A2994 RMK AO2 SLP140 T02670189
Loading
Personal Weather Stations






























Interactive Weather Map
Tropical Storm Tracking
New forecast layout! Learn more

10-Day Weather Forecast

Advertisements
Track Severe Weather on mobile